Terminal Aerodrome Forecast
Issued by NWS

Home | Current Version | Previous Version | Text Only | Print | Product List | Glossary On
Versions: 1 2 3 4 5 6 7 8 9 10 11 12 13 14 15
031
FTUS45 KRIW 092333
TAFJAC
TAF
KJAC 092333Z 1000/1024 21011KT 1SM -SN OVC008
     FM100700 20012G22KT 1SM -SN OVC010
     FM102100 19011KT 3SM -SN OVC020
      AMD LTD TO CLD VIS AND WIND=

USA.gov is the U.S. government's official web portal to all federal, state and local government web resources and services.